createdAt,value
2022-08-01T00:00:44.519Z,101107.38
2022-08-01T00:05:46.317Z,101104.69
2022-08-01T00:10:47.800Z,101106.63
2022-08-01T00:15:53.932Z,101117.09
2022-08-01T00:20:55.858Z,101108.69
2022-08-01T00:25:57.946Z,101107.81
2022-08-01T00:30:59.427Z,101126.94
2022-08-01T00:36:00.893Z,101122.63
2022-08-01T00:41:02.435Z,101117.59
2022-08-01T00:46:03.894Z,101112.34
2022-08-01T00:51:05.871Z,101104.84
2022-08-01T00:56:07.950Z,101117.72
2022-08-01T01:01:09.501Z,101112.38
2022-08-01T01:06:43.012Z,101097.09
2022-08-01T01:11:53.630Z,101112.56
2022-08-01T01:16:56.057Z,101117.81
2022-08-01T01:22:22.735Z,101112.56
2022-08-01T01:27:46.383Z,101116.13
2022-08-01T01:32:50.978Z,101120.44
2022-08-01T01:38:02.367Z,101102.50
2022-08-01T01:43:04.055Z,101112.00
2022-08-01T01:48:06.989Z,101128.78
2022-08-01T01:53:15.213Z,101116.66
2022-08-01T01:58:19.116Z,101132.25
2022-08-01T02:03:22.062Z,101105.41
2022-08-01T02:08:25.257Z,101105.50
2022-08-01T02:13:27.089Z,101117.66
2022-08-01T02:18:29.153Z,101117.59
2022-08-01T02:23:34.953Z,101115.13
2022-08-01T02:28:47.784Z,101115.91
2022-08-01T02:33:57.805Z,101111.72
2022-08-01T02:39:02.257Z,101111.56
2022-08-01T02:44:07.738Z,101106.59
2022-08-01T02:49:11.932Z,101106.69
2022-08-01T02:54:18.237Z,101120.41
2022-08-01T02:59:26.412Z,101115.38
2022-08-01T03:04:28.804Z,101100.97
2022-08-01T03:09:33.257Z,101119.88
2022-08-01T03:14:37.145Z,101105.56
2022-08-01T03:19:40.325Z,101119.25
2022-08-01T03:24:43.883Z,101120.31
2022-08-01T03:29:46.199Z,101131.50
2022-08-01T03:34:47.819Z,101126.41
2022-08-01T03:39:55.338Z,101128.19
2022-08-01T03:45:03.564Z,101136.97
2022-08-01T03:50:12.259Z,101130.09
2022-08-01T03:55:17.852Z,101118.34
2022-08-01T04:00:19.636Z,101126.22
2022-08-01T04:05:21.409Z,101101.38
2022-08-01T04:10:23.934Z,101119.38
2022-08-01T04:15:25.411Z,101130.75
2022-08-01T04:20:26.941Z,101135.19
2022-08-01T04:25:35.919Z,101114.81
2022-08-01T04:30:40.053Z,101153.81
2022-08-01T04:36:02.269Z,101165.13
2022-08-01T04:41:09.501Z,101149.66
2022-08-01T04:46:12.631Z,101143.66
2022-08-01T04:51:18.405Z,101177.34
2022-08-01T04:56:21.602Z,101179.41
2022-08-01T05:01:23.182Z,101168.75
2022-08-01T05:06:24.668Z,101172.41
2022-08-01T05:11:26.078Z,101173.28
2022-08-01T05:16:27.542Z,101186.25
2022-08-01T05:21:29.119Z,101189.84
2022-08-01T05:26:30.523Z,101201.16
2022-08-01T05:31:35.200Z,101205.50
2022-08-01T05:36:38.491Z,101199.25
2022-08-01T05:41:40.384Z,101208.88
2022-08-01T05:46:41.843Z,101207.09
2022-08-01T05:51:43.716Z,101207.09
2022-08-01T05:56:45.137Z,101184.66
2022-08-01T06:01:46.782Z,101209.59
2022-08-01T06:06:48.617Z,101206.88
2022-08-01T06:11:50.056Z,101193.81
2022-08-01T06:16:51.421Z,101210.97
2022-08-01T06:21:52.842Z,101190.13
2022-08-01T06:26:54.412Z,101211.50
2022-08-01T06:31:55.806Z,101210.56
2022-08-01T06:36:57.221Z,101194.72
2022-08-01T06:41:58.622Z,101198.69
2022-08-01T06:47:00.050Z,101215.06
2022-08-01T06:52:01.503Z,101213.63
2022-08-01T06:57:06.510Z,101218.56
2022-08-01T07:02:08.950Z,101215.88
2022-08-01T07:07:10.612Z,101217.41
2022-08-01T07:12:12.298Z,101216.78
2022-08-01T07:17:13.722Z,101221.63
2022-08-01T07:22:23.474Z,101216.88
2022-08-01T07:27:25.956Z,101226.38
2022-08-01T07:32:27.956Z,101219.59
2022-08-01T07:37:45.555Z,101216.94
2022-08-01T07:42:50.907Z,101208.34
2022-08-01T07:47:52.335Z,101227.06
2022-08-01T07:52:53.806Z,101216.03
2022-08-01T07:57:55.257Z,101221.16
2022-08-01T08:02:59.702Z,101236.75
2022-08-01T08:08:01.244Z,101231.56
2022-08-01T08:13:03.010Z,101242.25
2022-08-01T08:18:04.896Z,101253.03
2022-08-01T08:23:41.615Z,101252.06
2022-08-01T08:28:44.756Z,101246.84
2022-08-01T08:33:46.151Z,101253.91
2022-08-01T08:38:47.615Z,101244.84
2022-08-01T08:43:49.478Z,101249.22
2022-08-01T08:48:52.543Z,101258.50
2022-08-01T08:53:57.928Z,101256.34
2022-08-01T08:58:59.489Z,101245.44
2022-08-01T09:04:00.971Z,101245.84
2022-08-01T09:09:02.773Z,101253.16
2022-08-01T09:14:06.956Z,101259.16
2022-08-01T09:19:16.072Z,101248.88
2022-08-01T09:24:32.406Z,101258.97
2022-08-01T09:29:38.183Z,101288.00
2022-08-01T09:34:42.435Z,101276.44
2022-08-01T09:39:46.165Z,101273.88
2022-08-01T09:44:55.198Z,101284.09
2022-08-01T09:49:59.415Z,101295.00
2022-08-01T09:55:06.561Z,101308.63
2022-08-01T10:00:35.656Z,101298.34
2022-08-01T10:05:43.808Z,101308.56
2022-08-01T10:11:09.161Z,101301.41
2022-08-01T10:16:14.095Z,101299.13
2022-08-01T10:21:56.619Z,101281.91
2022-08-01T10:26:41.340Z,101287.19
2022-08-01T10:31:43.106Z,101303.53
2022-08-01T10:36:52.119Z,101302.97
2022-08-01T10:41:56.055Z,101308.19
2022-08-01T10:47:04.274Z,101318.16
2022-08-01T10:52:21.303Z,101315.84
2022-08-01T10:57:27.499Z,101307.13
2022-08-01T11:02:32.842Z,101280.94
2022-08-01T11:07:46.878Z,101301.81
2022-08-01T11:12:48.939Z,101299.94
2022-08-01T11:17:54.893Z,101307.13
2022-08-01T11:23:05.083Z,101312.44
2022-08-01T11:28:28.986Z,101311.13
2022-08-01T11:33:42.369Z,101300.78
2022-08-01T11:39:13.570Z,101305.63
2022-08-01T11:44:20.963Z,101297.13
2022-08-01T11:49:26.572Z,101300.16
2022-08-01T11:54:35.274Z,101294.72
2022-08-01T11:59:41.424Z,101292.19
2022-08-01T12:05:05.807Z,101289.44
2022-08-01T12:10:17.391Z,101299.94
2022-08-01T12:15:20.809Z,101306.50
2022-08-01T12:20:24.321Z,101318.09
2022-08-01T12:25:25.888Z,101306.22
2022-08-01T12:30:27.890Z,101296.38
2022-08-01T12:35:30.626Z,101307.59
2022-08-01T12:40:40.949Z,101297.75
2022-08-01T12:45:54.509Z,101296.47
2022-08-01T12:51:02.256Z,101306.00
2022-08-01T12:56:03.970Z,101306.38
2022-08-01T13:01:12.979Z,101308.38
2022-08-01T13:06:17.930Z,101311.44
2022-08-01T13:18:18.708Z,101314.97
2022-08-01T13:24:02.666Z,101332.44
2022-08-01T13:28:42.997Z,101330.31
2022-08-01T13:34:00.018Z,101304.34
2022-08-01T13:39:20.823Z,101312.59
2022-08-01T13:44:22.341Z,101310.81
2022-08-01T13:49:23.781Z,101302.31
2022-08-01T13:54:25.670Z,101328.19
2022-08-01T13:59:27.154Z,101323.16
2022-08-01T14:04:28.693Z,101319.66
2022-08-01T14:09:32.565Z,101310.47
2022-08-01T14:14:34.160Z,101318.13
2022-08-01T14:19:38.899Z,101293.91
2022-08-01T14:24:41.153Z,101314.09
2022-08-01T14:30:02.838Z,101302.31
2022-08-01T14:35:06.399Z,101307.03
2022-08-01T14:40:11.485Z,101303.63
2022-08-01T14:45:14.369Z,101310.28
2022-08-01T14:50:16.775Z,101307.63
2022-08-01T14:55:18.854Z,101288.28
2022-08-01T15:00:20.931Z,101293.63
2022-08-01T15:05:22.453Z,101303.63
2022-08-01T15:10:24.923Z,101305.13
2022-08-01T15:15:27.623Z,101311.22
2022-08-01T15:20:29.162Z,101293.97
2022-08-01T15:25:40.399Z,101304.75
2022-08-01T15:30:43.062Z,101307.41
2022-08-01T15:35:44.611Z,101299.56
2022-08-01T15:40:46.010Z,101290.13
2022-08-01T15:45:48.629Z,101297.19
2022-08-01T15:50:50.970Z,101326.03
2022-08-01T15:55:52.915Z,101317.50
2022-08-01T16:00:54.429Z,101315.81
2022-08-01T16:05:55.954Z,101314.41
2022-08-01T16:10:57.435Z,101329.25
2022-08-01T16:15:59.559Z,101318.72
2022-08-01T16:21:01.981Z,101300.06
2022-08-01T16:26:03.450Z,101316.38
2022-08-01T16:31:09.640Z,101317.13
2022-08-01T16:36:26.487Z,101318.25
2022-08-01T16:41:27.913Z,101308.38
2022-08-01T16:46:29.443Z,101312.06
2022-08-01T16:51:32.579Z,101302.69
2022-08-01T16:56:34.473Z,101316.03
2022-08-01T17:01:59.167Z,101306.59
2022-08-01T17:06:57.892Z,101324.03
2022-08-01T17:11:59.315Z,101325.78
2022-08-01T17:17:00.857Z,101329.94
2022-08-01T17:22:02.318Z,101317.38
2022-08-01T17:27:05.046Z,101312.91
2022-08-01T17:32:07.930Z,101308.81
2022-08-01T17:37:10.316Z,101327.19
2022-08-01T17:42:12.525Z,101325.81
2022-08-01T17:47:28.827Z,101327.72
2022-08-01T17:52:35.791Z,101321.31
2022-08-01T17:57:37.218Z,101306.94
2022-08-01T18:02:38.870Z,101329.06
2022-08-01T18:08:01.086Z,101321.63
2022-08-01T18:13:03.622Z,101332.28
2022-08-01T18:18:05.271Z,101342.31
2022-08-01T18:23:09.883Z,101338.28
2022-08-01T18:28:19.565Z,101351.28
2022-08-01T18:33:32.625Z,101340.16
2022-08-01T18:38:35.187Z,101351.63
2022-08-01T18:43:40.407Z,101364.75
2022-08-01T18:48:42.054Z,101349.53
2022-08-01T18:53:43.502Z,101348.47
2022-08-01T18:58:48.438Z,101341.78
2022-08-01T19:03:49.948Z,101357.09
2022-08-01T19:08:55.694Z,101357.53
2022-08-01T19:13:58.806Z,101364.94
2022-08-01T19:19:04.523Z,101376.75
2022-08-01T19:24:23.622Z,101381.59
2022-08-01T19:29:35.410Z,101386.00
2022-08-01T19:34:49.768Z,101387.47
2022-08-01T19:39:51.744Z,101376.34
2022-08-01T19:44:54.075Z,101393.22
2022-08-01T19:49:55.530Z,101388.41
2022-08-01T19:54:57.895Z,101388.88
2022-08-01T20:00:01.999Z,101407.22
2022-08-01T20:05:03.635Z,101414.06
2022-08-01T20:10:05.528Z,101404.28
2022-08-01T20:15:07.829Z,101407.38
2022-08-01T20:20:10.254Z,101405.72
2022-08-01T20:25:12.577Z,101436.06
2022-08-01T20:30:14.620Z,101425.16
2022-08-01T20:35:16.276Z,101424.41
2022-08-01T20:40:18.682Z,101418.28
2022-08-01T20:45:27.505Z,101422.50
2022-08-01T20:50:52.895Z,101402.97
2022-08-01T20:56:24.874Z,101416.22
2022-08-01T21:01:33.842Z,101427.44
2022-08-01T21:06:45.115Z,101426.75
2022-08-01T21:11:57.089Z,101414.78
2022-08-01T21:17:03.568Z,101418.91
2022-08-01T21:22:11.925Z,101431.44
2022-08-01T21:27:17.371Z,101416.97
2022-08-01T21:32:22.013Z,101410.31
2022-08-01T21:37:23.499Z,101434.75
2022-08-01T21:42:27.668Z,101424.84
2022-08-01T21:47:29.993Z,101436.44
2022-08-01T21:52:40.998Z,101433.84
2022-08-01T21:57:54.579Z,101433.25
2022-08-01T22:03:23.430Z,101433.34
2022-08-01T22:08:36.952Z,101438.94
2022-08-01T22:13:38.581Z,101443.56
2022-08-01T22:18:40.134Z,101440.25
2022-08-01T22:23:42.599Z,101443.00
2022-08-01T22:28:44.462Z,101446.63
2022-08-01T22:33:47.384Z,101419.81
2022-08-01T22:38:48.921Z,101417.31
2022-08-01T22:43:53.127Z,101435.06
2022-08-01T22:49:01.831Z,101435.97
2022-08-01T22:54:11.441Z,101434.50
2022-08-01T22:59:16.337Z,101433.03
2022-08-01T23:04:33.199Z,101432.47
2022-08-01T23:09:48.070Z,101416.03
2022-08-01T23:14:57.859Z,101414.47
2022-08-01T23:20:05.601Z,101406.06
2022-08-01T23:25:12.551Z,101419.25
2022-08-01T23:30:14.480Z,101417.91
2022-08-01T23:35:15.882Z,101410.59
2022-08-01T23:40:18.365Z,101425.50
2022-08-01T23:45:20.862Z,101422.88
2022-08-01T23:50:22.687Z,101428.31
2022-08-01T23:55:35.040Z,101420.31
